Timeline UpdatesTrip UpdatesNews PostsPvt PostsTravel TipsAdmin PostsConv PostsFollowed PostsChat RequestsBlog PostsPNR Posts

Disclaimer
Search
 
 
Thu Apr 24, 2014 01:35:17 ISTHomeTrainsΣChainsAtlasPNRForumGalleryNewsFAQTripsMembersLoginFeedback
No Recent News for this Train
Other Trains in the News **new
Latest...
Cancelled on 5/4/14 #1046550
Sat Apr 05, 2014 (12:53AM)
⇐ Return Journey: Train# 15484

14083⇒15483/Sikkim Mahananda Express

Jan 14 2014 (8:05PM)
Change Departure Station:
Change Arrival Station:
Post a Train Travel TipPost a Train Travel Tip **new
Post a Comment/Question/Picture/VideoPost a Comment/Question/Picture/Video
Pantry/Catering
✓ Pantry Car Avbl
✓ Catering Avbl
RSA - Rake Sharing
Rake/Coach Composition
Loco-SLR-GS-GS-B1-AB1-B2-S13-S12-S11-PC-S10-S9-S8-S7-S6-S5-S4-S3-S2-S1-GS-GS-GS-SLR.
Loco
SGUJ WDP-4 (APDJ to PNBE), GZB/MGS WAP-4 (PNBE to DLI)
News    PNR    Forum    Time-Table    Availability    Fare Chart    Map    Arr/Dep History    Trips    Gallery    ΣChains    X/O    Timeline    
Travel Time: 8h 50m    16 halts    Distance: 435 km    Avg Speed: 49 km/hr
Type: Mail/Express
Zone: NFR/Northeast Frontier
Departs @ 09:20 (Avg 4h 42m late)
Platform# 5
SMTWTFS
Kanpur Central/CNB 
Arrives @ 18:10 (Avg 5h 23m late)
Platform# 11
SMTWTFS
Old Delhi Junction/DLI 

16 halts. 64 intermediate Stations between Kanpur Central and Old Delhi Junction

Show ALL intermediate Stations  Show Old Time-Table

#CodeStation NameX/OArrivesAvgDepartsAvgHaltPFDay#KmSpeedElevZoneAddress
1APDJAlipur Duar Junction (3)  -07:15+3:4611-1216.46053mNFR03564-255091, West Bengal
2HSAHasimara (3)X  07:50+3:4707:52+3:472m--1-1181.656123mNFRDist - jalpaiguri, West Bengal
3DLODalgaon (3)  08:19+3:4908:20+3:501m11-1156.550120mNFRPh:03563-266013, West Bengal
4BNVBinnaguri (3)  08:31+3:5108:32+3:531m--1-1147.362132mNFRBinnaguri, West Bengal
5NMZNew Mal Junction (3)X  09:15+4:0209:20+4:065m--1-1103.041161mNFRDist - Jalpaiguri, West Bengal
6SGUJSiliguri Junction (5)  10:30+3:5710:35+4:055m--1-1055.229120mNFRDist-Darjeeling Siliguri-734001, West Bengal
7NJPNew Jalpaiguri Junction (8)X  10:50+3:5511:10+3:5720m31-1047.976114mNFRCity-Siliguri . Dist-Jalpaiguri, West Bengal
8AUBAluabari Road (2)  11:55+4:0911:57+4:092m21-991.2730mNFRDist - uttar Dinajpur, West Bengal
9KNEKishanGanj (3)X  12:22+4:1412:27+4:135m21-960.66852mNFRKishanganj, Bihar
10DLKDalkhola (3)X  12:52+4:1712:53+4:181m101-932.17644mNFRDalkola, West Bengal
11BOEBarsoi Junction (3)  13:16+4:2313:18+4:242m--1-903.05737mNFRdist- katihar, Bihar
12AZRAzamnagar Road (2)  13:32+4:2513:33+4:281m--1-889.73534mNFRAzamnagar, Bihar
13LAVLabha  14:09+4:2414:10+4:251m--1-868.61829mNFRNational Highway 81, Bihar
14KIRKatihar Junction (7)XO  15:25+4:0815:45+4:0820m51-845.84335mNFR854105., Bihar
15SMOSemapur16:01+4:0816:03+4:082m--1-834.3-35mECRKatihar, Bihar
16CRRKaragola Road  16:06+4:1516:07+4:191m--1-823.56836mECRLachhmipur, Bihar
17KUEKurselaX  16:22+4:2216:23+4:261m--1-806.67431mECRNH 31, Bihar
18NNANaugachia  16:38+4:2616:39+4:271m--1-788.06037mECRBhagalpur, Bihar
19THBThana Bihpur JunctionXO  16:55+4:2816:56+4:301m--1-772.11639mECRThana Bihpur, Bihar
20NNRNarayanpur  17:24+4:2317:25+4:231m--1-764.55039mECRNarayanpur, Bihar
21PSRPasrahaX  17:39+4:2317:40+4:271m--1-752.95341mECRPasraha, Bihar
22MSKMahes Khunt  17:54+4:2917:55+4:331m--1-740.55737mECRMaheshkhunt, Bihar
23MNEMansi Junction (3)X  18:06+4:3418:07+4:361m--1-730.13143mECRMansi, Bihar
24KGGKhagaria Junction (3)X  18:24+4:3118:25+4:361m--1-721.35343mECRKhagaria, Bihar
25SKJSahibpur Kamal Junction (2)X  18:39+4:3518:40+4:371m--1-708.94241mECRShahpur Kamal, Bihar
26LKNLakhminia  18:54+4:3318:55+4:341m--1-699.22245mECRBegusarai, Bihar
27BGSBegu Sarai (2)X  19:44+4:2419:45+4:201m--1-681.415 ECRBegusarai, Bihar
28BJUBarauni Junction (9)X  20:40+4:4820:45+4:435m11-668.019 ECRBegusarai, Bihar
29MKAMokama Junction (3)X  21:51+5:0321:53+5:002m31-647.38848mECRPatna, Bihar
30BKPBakhtiyarpur Junction (5)  22:23+4:5522:25+4:572m--1-603.24951mECRPatna, Bihar
31PNBEPatna Junction (10)X  23:20+4:2923:45+4:3325m41-558.13557mECRPatna 800001, Bihar
32DNRDanapur (5)  00:01+4:3000:03+4:302m--2-548.79158mECRKhagaul, Bihar
33ARAAra Junction (3)  00:29+4:2900:31+4:362m--2-509.17163mECRarrah( 06182-233411), Bihar
34BXRBuxar (3)X  01:29+4:2701:32+4:273m--2-440.64267mECRBuxar, Bihar
35MGSMughal Sarai Junction (8)X  03:45+3:4604:00+3:5015m42-346.76483mECRMughalsarai 232101, Uttar Pradesh
36MZPMirzapur (3)  04:59+4:0805:00+4:111m--2-283.54088mNCRMirzapur, Uttar Pradesh
37BDLVindhyachal (3)X  05:11+4:2105:12+4:231m--2-276.28888mNCRMirzapur, Uttar Pradesh
38NYNNaini Junction (4)  06:03+4:2406:05+4:162m22-201.51798mNCRAllahabad, Uttar Pradesh
39ALDAllahabad Junction (10)X  06:30+4:2506:35+4:305m32-194.389100mNCRAllahabad 211003, Uttar Pradesh
40FTPFatehpur (3)  07:54+4:3107:55+4:261m--2-77.662120mNCRFatehpur, Uttar Pradesh
41CNB»Kanpur Central (10)»  09:10+4:3809:20+4:4210m520.041128mNCRKanpur, Uttar Pradesh
42PNKPanki (3)X  09:37+4:4009:38+4:411m--211.576129mNCRKANPUR-208 020, Uttar Pradesh
43RURARura (4)X  10:04+4:4710:05+4:491m--244.371137mNCRJhinjhak, Uttar Pradesh
44JJKJhinjhak (3)  10:21+4:4610:22+4:481m3263.459140mNCRAuraiya, Uttar Pradesh
45PHDPhaphund (4)X  10:42+4:5210:43+4:551m--283.253146mNCRdist. Auraiya, Uttar Pradesh
46ULDAchalda (3)X  11:02+4:5311:03+4:551m--2100.065147mNCRDist. Auraiya(05688-1072), Uttar Pradesh
47BNTBharthana (3)X  11:21+4:5411:22+5:041m--2119.552147mNCRBharthana, Uttar Pradesh
48ETWEtawah (5)X  11:45+4:5911:46+5:101m22139.472154mNCRDistt. Etawah, Uttar Pradesh
49SKBShikohabad Junction (4)  12:32+5:1012:33+5:211m32194.857166mNCRDistrict Firozabad, Uttar Pradesh
50FZDFirozabad (4)O  12:54+5:0912:55+5:221m32214.625164mNCRFirozabad, Uttar Pradesh
51TDLTundla Junction (4)  13:35+5:0813:45+5:0610m22231.270167mNCRDistt.Firozabad, Uttar Pradesh
52JLSJalesar Road (1)X  14:09+5:1414:10+5:151m12259.163172mNCRMDR 106W, Uttar Pradesh
53HRSHathras Junction (3)  14:29+5:2014:30+5:231m--2279.260183mNCRMahamaya Nagar(05722-242803), Uttar Pradesh
54ALJNAligarh Junction (4)O  15:00+5:3015:05+5:395m22309.375192mNCRAligarh, Uttar Pradesh
55KRJKhurja Junction (4)XO  15:40+5:3315:45+5:325m--2352.838199mNCRBulandshahr, Uttar Pradesh
56GZBGhaziabad Junction (6)X  17:25+5:1417:30+5:195m32415.543217mNRGhaziabad, Uttar Pradesh
57DSAShahdara Junction (4)  17:49+5:1317:50+5:211m--2429.119212mNRCircular Rd, Delhi NCT
58DLI•Old Delhi Junction (16)•  18:10+5:23-112435.4-219mNRNear Chandni Chowk Metro Station, Delhi NCT
Scroll to Top
Scroll to Bottom